sensor_id;sensor_type;location;lat;lon;timestamp;P1;durP1;ratioP1;P2;durP2;ratioP2
23390;SDS011;11868;45.606;5.302;2024-03-08T00:01:14;10.32;;;4.22;;
23390;SDS011;11868;45.606;5.302;2024-03-08T00:03:41;14.10;;;4.15;;
23390;SDS011;11868;45.606;5.302;2024-03-08T00:06:06;13.05;;;4.60;;
23390;SDS011;11868;45.606;5.302;2024-03-08T00:08:32;10.98;;;4.63;;
23390;SDS011;11868;45.606;5.302;2024-03-08T00:10:58;8.30;;;3.95;;
23390;SDS011;11868;45.606;5.302;2024-03-08T00:13:23;13.13;;;4.60;;
23390;SDS011;11868;45.606;5.302;2024-03-08T00:15:50;10.93;;;4.05;;
23390;SDS011;11868;45.606;5.302;2024-03-08T00:18:15;10.05;;;4.15;;
23390;SDS011;11868;45.606;5.302;2024-03-08T00:20:41;11.95;;;4.65;;
23390;SDS011;11868;45.606;5.302;2024-03-08T00:23:07;7.47;;;4.20;;
23390;SDS011;11868;45.606;5.302;2024-03-08T00:25:32;15.52;;;4.80;;
23390;SDS011;11868;45.606;5.302;2024-03-08T00:27:59;12.75;;;4.55;;
23390;SDS011;11868;45.606;5.302;2024-03-08T00:30:24;10.20;;;4.85;;
23390;SDS011;11868;45.606;5.302;2024-03-08T00:32:50;7.55;;;4.20;;
23390;SDS011;11868;45.606;5.302;2024-03-08T00:35:15;13.40;;;4.55;;
23390;SDS011;11868;45.606;5.302;2024-03-08T00:37:41;15.13;;;4.70;;
23390;SDS011;11868;45.606;5.302;2024-03-08T00:40:07;10.07;;;5.30;;
23390;SDS011;11868;45.606;5.302;2024-03-08T00:42:34;8.52;;;4.45;;
23390;SDS011;11868;45.606;5.302;2024-03-08T00:44:59;9.38;;;4.45;;
23390;SDS011;11868;45.606;5.302;2024-03-08T00:47:25;10.00;;;4.35;;
23390;SDS011;11868;45.606;5.302;2024-03-08T00:49:50;9.13;;;5.07;;
23390;SDS011;11868;45.606;5.302;2024-03-08T00:52:16;7.50;;;4.45;;
23390;SDS011;11868;45.606;5.302;2024-03-08T00:54:43;8.93;;;3.90;;
23390;SDS011;11868;45.606;5.302;2024-03-08T00:57:08;9.38;;;4.57;;
23390;SDS011;11868;45.606;5.302;2024-03-08T00:59:34;12.25;;;4.65;;
23390;SDS011;11868;45.606;5.302;2024-03-08T01:01:59;13.38;;;4.20;;
23390;SDS011;11868;45.606;5.302;2024-03-08T01:04:25;8.40;;;4.65;;
23390;SDS011;11868;45.606;5.302;2024-03-08T01:06:53;9.23;;;4.07;;
23390;SDS011;11868;45.606;5.302;2024-03-08T01:09:21;8.57;;;4.32;;
23390;SDS011;11868;45.606;5.302;2024-03-08T01:11:49;10.43;;;4.77;;
23390;SDS011;11868;45.606;5.302;2024-03-08T01:14:15;6.43;;;4.05;;
23390;SDS011;11868;45.606;5.302;2024-03-08T01:16:40;6.80;;;4.00;;
23390;SDS011;11868;45.606;5.302;2024-03-08T01:19:06;9.45;;;4.57;;
23390;SDS011;11868;45.606;5.302;2024-03-08T01:21:31;9.45;;;4.38;;
23390;SDS011;11868;45.606;5.302;2024-03-08T01:23:57;9.05;;;4.63;;
23390;SDS011;11868;45.606;5.302;2024-03-08T01:26:22;7.95;;;5.63;;
23390;SDS011;11868;45.606;5.302;2024-03-08T01:28:48;9.50;;;5.40;;
23390;SDS011;11868;45.606;5.302;2024-03-08T01:31:14;9.13;;;4.85;;
23390;SDS011;11868;45.606;5.302;2024-03-08T01:33:40;8.20;;;4.03;;
23390;SDS011;11868;45.606;5.302;2024-03-08T01:36:06;9.52;;;4.45;;
23390;SDS011;11868;45.606;5.302;2024-03-08T01:38:31;7.90;;;4.22;;
23390;SDS011;11868;45.606;5.302;2024-03-08T01:40:57;13.15;;;4.97;;
23390;SDS011;11868;45.606;5.302;2024-03-08T01:43:24;14.07;;;4.78;;
23390;SDS011;11868;45.606;5.302;2024-03-08T01:45:52;6.90;;;4.05;;
23390;SDS011;11868;45.606;5.302;2024-03-08T01:48:17;7.30;;;4.13;;
23390;SDS011;11868;45.606;5.302;2024-03-08T01:50:44;11.65;;;4.13;;
23390;SDS011;11868;45.606;5.302;2024-03-08T01:53:09;6.90;;;4.30;;
23390;SDS011;11868;45.606;5.302;2024-03-08T01:55:36;11.85;;;4.20;;
23390;SDS011;11868;45.606;5.302;2024-03-08T01:58:05;6.57;;;3.90;;
23390;SDS011;11868;45.606;5.302;2024-03-08T02:00:31;12.43;;;4.57;;
23390;SDS011;11868;45.606;5.302;2024-03-08T02:02:58;10.93;;;4.60;;
23390;SDS011;11868;45.606;5.302;2024-03-08T02:05:23;6.32;;;3.67;;
23390;SDS011;11868;45.606;5.302;2024-03-08T02:07:49;10.60;;;4.00;;
23390;SDS011;11868;45.606;5.302;2024-03-08T02:10:14;6.55;;;3.78;;
23390;SDS011;11868;45.606;5.302;2024-03-08T02:12:40;9.85;;;4.35;;
23390;SDS011;11868;45.606;5.302;2024-03-08T02:15:05;6.28;;;3.45;;
23390;SDS011;11868;45.606;5.302;2024-03-08T02:17:31;8.10;;;3.70;;
23390;SDS011;11868;45.606;5.302;2024-03-08T02:19:58;9.52;;;4.00;;
23390;SDS011;11868;45.606;5.302;2024-03-08T02:22:27;10.32;;;4.05;;
23390;SDS011;11868;45.606;5.302;2024-03-08T02:24:54;10.35;;;3.75;;
23390;SDS011;11868;45.606;5.302;2024-03-08T02:27:26;14.35;;;4.18;;
23390;SDS011;11868;45.606;5.302;2024-03-08T02:29:53;6.45;;;3.70;;
23390;SDS011;11868;45.606;5.302;2024-03-08T02:32:21;9.57;;;3.72;;
23390;SDS011;11868;45.606;5.302;2024-03-08T02:34:49;5.97;;;3.90;;
23390;SDS011;11868;45.606;5.302;2024-03-08T02:37:15;7.93;;;4.43;;
23390;SDS011;11868;45.606;5.302;2024-03-08T02:39:41;8.55;;;4.50;;
23390;SDS011;11868;45.606;5.302;2024-03-08T02:42:06;10.10;;;4.40;;
23390;SDS011;11868;45.606;5.302;2024-03-08T02:44:32;9.80;;;4.10;;
23390;SDS011;11868;45.606;5.302;2024-03-08T02:47:01;8.02;;;4.28;;
23390;SDS011;11868;45.606;5.302;2024-03-08T02:49:26;6.15;;;4.03;;
23390;SDS011;11868;45.606;5.302;2024-03-08T02:51:54;6.30;;;4.15;;
23390;SDS011;11868;45.606;5.302;2024-03-08T02:54:22;6.22;;;4.15;;
23390;SDS011;11868;45.606;5.302;2024-03-08T02:56:47;8.27;;;4.47;;
23390;SDS011;11868;45.606;5.302;2024-03-08T02:59:15;8.02;;;4.70;;
23390;SDS011;11868;45.606;5.302;2024-03-08T03:01:42;8.07;;;4.55;;
23390;SDS011;11868;45.606;5.302;2024-03-08T03:04:08;7.97;;;5.32;;
23390;SDS011;11868;45.606;5.302;2024-03-08T03:06:33;10.60;;;4.93;;
23390;SDS011;11868;45.606;5.302;2024-03-08T03:08:59;10.32;;;5.30;;
23390;SDS011;11868;45.606;5.302;2024-03-08T03:11:24;6.82;;;5.57;;
23390;SDS011;11868;45.606;5.302;2024-03-08T03:13:49;9.10;;;5.88;;
23390;SDS011;11868;45.606;5.302;2024-03-08T03:16:18;9.75;;;6.47;;
23390;SDS011;11868;45.606;5.302;2024-03-08T03:18:45;8.57;;;6.45;;
23390;SDS011;11868;45.606;5.302;2024-03-08T03:21:11;8.60;;;6.60;;
23390;SDS011;11868;45.606;5.302;2024-03-08T03:23:38;12.82;;;6.68;;
23390;SDS011;11868;45.606;5.302;2024-03-08T03:26:04;13.35;;;7.35;;
23390;SDS011;11868;45.606;5.302;2024-03-08T03:28:32;10.10;;;7.78;;
23390;SDS011;11868;45.606;5.302;2024-03-08T03:30:58;10.32;;;8.07;;
23390;SDS011;11868;45.606;5.302;2024-03-08T03:33:23;13.70;;;8.23;;
23390;SDS011;11868;45.606;5.302;2024-03-08T03:35:49;14.20;;;8.45;;
23390;SDS011;11868;45.606;5.302;2024-03-08T03:38:16;11.13;;;8.27;;
23390;SDS011;11868;45.606;5.302;2024-03-08T03:40:42;11.43;;;8.48;;
23390;SDS011;11868;45.606;5.302;2024-03-08T03:43:10;13.00;;;8.25;;
23390;SDS011;11868;45.606;5.302;2024-03-08T03:45:35;14.23;;;8.98;;
23390;SDS011;11868;45.606;5.302;2024-03-08T03:48:04;12.73;;;8.23;;
23390;SDS011;11868;45.606;5.302;2024-03-08T03:50:31;13.48;;;8.70;;
23390;SDS011;11868;45.606;5.302;2024-03-08T03:52:59;12.45;;;8.63;;
23390;SDS011;11868;45.606;5.302;2024-03-08T03:55:24;11.50;;;8.27;;
23390;SDS011;11868;45.606;5.302;2024-03-08T03:57:50;17.42;;;8.85;;
23390;SDS011;11868;45.606;5.302;2024-03-08T04:00:15;11.85;;;8.32;;
23390;SDS011;11868;45.606;5.302;2024-03-08T04:02:41;11.68;;;7.90;;
23390;SDS011;11868;45.606;5.302;2024-03-08T04:05:07;10.95;;;8.27;;
23390;SDS011;11868;45.606;5.302;2024-03-08T04:07:34;11.95;;;7.55;;
23390;SDS011;11868;45.606;5.302;2024-03-08T04:10:01;12.10;;;7.63;;
23390;SDS011;11868;45.606;5.302;2024-03-08T04:12:27;10.90;;;7.38;;
23390;SDS011;11868;45.606;5.302;2024-03-08T04:14:54;13.73;;;7.68;;
23390;SDS011;11868;45.606;5.302;2024-03-08T04:17:20;11.68;;;7.95;;
23390;SDS011;11868;45.606;5.302;2024-03-08T04:19:46;14.90;;;7.93;;
23390;SDS011;11868;45.606;5.302;2024-03-08T04:22:13;11.20;;;8.23;;
23390;SDS011;11868;45.606;5.302;2024-03-08T04:24:38;13.40;;;9.40;;
23390;SDS011;11868;45.606;5.302;2024-03-08T04:27:05;14.45;;;9.50;;
23390;SDS011;11868;45.606;5.302;2024-03-08T04:29:31;14.95;;;9.52;;
23390;SDS011;11868;45.606;5.302;2024-03-08T04:31:57;13.77;;;10.02;;
23390;SDS011;11868;45.606;5.302;2024-03-08T04:34:23;14.40;;;9.35;;
23390;SDS011;11868;45.606;5.302;2024-03-08T04:36:49;11.82;;;9.02;;
23390;SDS011;11868;45.606;5.302;2024-03-08T04:39:14;13.90;;;9.68;;
23390;SDS011;11868;45.606;5.302;2024-03-08T04:41:40;12.43;;;9.40;;
23390;SDS011;11868;45.606;5.302;2024-03-08T04:44:07;16.52;;;11.18;;
23390;SDS011;11868;45.606;5.302;2024-03-08T04:46:32;16.60;;;10.75;;
23390;SDS011;11868;45.606;5.302;2024-03-08T04:49:00;15.15;;;10.98;;
23390;SDS011;11868;45.606;5.302;2024-03-08T04:51:25;15.00;;;10.60;;
23390;SDS011;11868;45.606;5.302;2024-03-08T04:53:51;16.13;;;11.52;;
23390;SDS011;11868;45.606;5.302;2024-03-08T04:56:16;19.17;;;11.60;;
23390;SDS011;11868;45.606;5.302;2024-03-08T04:58:44;17.73;;;11.30;;
23390;SDS011;11868;45.606;5.302;2024-03-08T05:01:11;17.83;;;11.45;;
23390;SDS011;11868;45.606;5.302;2024-03-08T05:03:37;15.30;;;10.32;;
23390;SDS011;11868;45.606;5.302;2024-03-08T05:06:03;21.08;;;11.48;;
23390;SDS011;11868;45.606;5.302;2024-03-08T05:08:29;16.23;;;10.73;;
23390;SDS011;11868;45.606;5.302;2024-03-08T05:10:55;15.93;;;11.10;;
23390;SDS011;11868;45.606;5.302;2024-03-08T05:13:20;17.65;;;11.77;;
23390;SDS011;11868;45.606;5.302;2024-03-08T05:15:49;15.90;;;11.75;;
23390;SDS011;11868;45.606;5.302;2024-03-08T05:18:17;17.30;;;12.35;;
23390;SDS011;11868;45.606;5.302;2024-03-08T05:20:42;16.02;;;12.20;;
23390;SDS011;11868;45.606;5.302;2024-03-08T05:23:08;19.30;;;12.23;;
23390;SDS011;11868;45.606;5.302;2024-03-08T05:25:34;18.65;;;12.00;;
23390;SDS011;11868;45.606;5.302;2024-03-08T05:27:59;15.95;;;11.65;;
23390;SDS011;11868;45.606;5.302;2024-03-08T05:30:24;18.33;;;11.77;;
23390;SDS011;11868;45.606;5.302;2024-03-08T05:32:50;14.98;;;10.65;;
23390;SDS011;11868;45.606;5.302;2024-03-08T05:35:15;16.23;;;10.85;;
23390;SDS011;11868;45.606;5.302;2024-03-08T05:37:41;15.65;;;11.38;;
23390;SDS011;11868;45.606;5.302;2024-03-08T05:40:07;16.05;;;10.55;;
23390;SDS011;11868;45.606;5.302;2024-03-08T05:42:37;20.88;;;12.52;;
23390;SDS011;11868;45.606;5.302;2024-03-08T05:45:03;15.50;;;11.88;;
23390;SDS011;11868;45.606;5.302;2024-03-08T05:47:31;19.27;;;13.30;;
23390;SDS011;11868;45.606;5.302;2024-03-08T05:49:57;19.00;;;13.00;;
23390;SDS011;11868;45.606;5.302;2024-03-08T05:52:23;23.00;;;15.15;;
23390;SDS011;11868;45.606;5.302;2024-03-08T05:54:48;25.40;;;16.30;;
23390;SDS011;11868;45.606;5.302;2024-03-08T05:57:13;34.22;;;19.63;;
23390;SDS011;11868;45.606;5.302;2024-03-08T05:59:39;28.08;;;17.05;;
23390;SDS011;11868;45.606;5.302;2024-03-08T06:02:05;37.00;;;19.60;;
23390;SDS011;11868;45.606;5.302;2024-03-08T06:04:30;21.88;;;13.52;;
23390;SDS011;11868;45.606;5.302;2024-03-08T06:06:56;18.27;;;12.68;;
23390;SDS011;11868;45.606;5.302;2024-03-08T06:09:23;18.42;;;13.50;;
23390;SDS011;11868;45.606;5.302;2024-03-08T06:11:54;18.60;;;12.73;;
23390;SDS011;11868;45.606;5.302;2024-03-08T06:14:19;21.65;;;14.40;;
23390;SDS011;11868;45.606;5.302;2024-03-08T06:16:45;20.38;;;13.35;;
23390;SDS011;11868;45.606;5.302;2024-03-08T06:19:11;20.15;;;12.70;;
23390;SDS011;11868;45.606;5.302;2024-03-08T06:21:37;18.35;;;12.45;;
23390;SDS011;11868;45.606;5.302;2024-03-08T06:24:03;19.85;;;13.77;;
23390;SDS011;11868;45.606;5.302;2024-03-08T06:26:28;19.05;;;13.38;;
23390;SDS011;11868;45.606;5.302;2024-03-08T06:28:54;17.83;;;12.60;;
23390;SDS011;11868;45.606;5.302;2024-03-08T06:31:20;18.00;;;13.15;;
23390;SDS011;11868;45.606;5.302;2024-03-08T06:33:45;18.73;;;13.35;;
23390;SDS011;11868;45.606;5.302;2024-03-08T06:36:10;20.27;;;13.43;;
23390;SDS011;11868;45.606;5.302;2024-03-08T06:38:37;18.50;;;12.70;;
23390;SDS011;11868;45.606;5.302;2024-03-08T06:41:07;17.70;;;13.50;;
23390;SDS011;11868;45.606;5.302;2024-03-08T06:43:33;19.30;;;13.07;;
23390;SDS011;11868;45.606;5.302;2024-03-08T06:45:59;19.77;;;12.23;;
23390;SDS011;11868;45.606;5.302;2024-03-08T06:48:24;19.52;;;12.15;;
23390;SDS011;11868;45.606;5.302;2024-03-08T06:50:50;16.70;;;12.13;;
23390;SDS011;11868;45.606;5.302;2024-03-08T06:53:15;15.85;;;11.57;;
23390;SDS011;11868;45.606;5.302;2024-03-08T06:55:44;17.20;;;12.05;;
23390;SDS011;11868;45.606;5.302;2024-03-08T06:58:09;16.58;;;11.77;;
23390;SDS011;11868;45.606;5.302;2024-03-08T07:00:35;18.00;;;12.80;;
23390;SDS011;11868;45.606;5.302;2024-03-08T07:03:01;22.52;;;16.13;;
23390;SDS011;11868;45.606;5.302;2024-03-08T07:05:27;20.30;;;13.60;;
23390;SDS011;11868;45.606;5.302;2024-03-08T07:07:53;26.08;;;15.20;;
23390;SDS011;11868;45.606;5.302;2024-03-08T07:10:19;19.63;;;14.38;;
23390;SDS011;11868;45.606;5.302;2024-03-08T07:12:51;19.13;;;13.15;;
23390;SDS011;11868;45.606;5.302;2024-03-08T07:15:18;18.67;;;13.30;;
23390;SDS011;11868;45.606;5.302;2024-03-08T07:17:44;20.92;;;13.55;;
23390;SDS011;11868;45.606;5.302;2024-03-08T07:20:10;20.90;;;13.50;;
23390;SDS011;11868;45.606;5.302;2024-03-08T07:22:38;26.33;;;12.90;;
23390;SDS011;11868;45.606;5.302;2024-03-08T07:25:05;22.88;;;14.82;;
23390;SDS011;11868;45.606;5.302;2024-03-08T07:27:49;19.85;;;13.30;;
23390;SDS011;11868;45.606;5.302;2024-03-08T07:30:16;23.08;;;14.93;;
23390;SDS011;11868;45.606;5.302;2024-03-08T07:33:00;21.73;;;14.18;;
23390;SDS011;11868;45.606;5.302;2024-03-08T07:35:27;20.30;;;14.60;;
23390;SDS011;11868;45.606;5.302;2024-03-08T07:37:53;20.15;;;12.75;;
23390;SDS011;11868;45.606;5.302;2024-03-08T07:40:20;23.45;;;14.23;;
23390;SDS011;11868;45.606;5.302;2024-03-08T07:42:46;20.50;;;13.70;;
23390;SDS011;11868;45.606;5.302;2024-03-08T07:45:11;19.15;;;13.88;;
23390;SDS011;11868;45.606;5.302;2024-03-08T07:47:37;21.85;;;12.88;;
23390;SDS011;11868;45.606;5.302;2024-03-08T07:50:03;23.08;;;15.38;;
23390;SDS011;11868;45.606;5.302;2024-03-08T07:52:29;20.33;;;13.90;;
23390;SDS011;11868;45.606;5.302;2024-03-08T07:54:54;20.38;;;12.80;;
23390;SDS011;11868;45.606;5.302;2024-03-08T07:57:19;24.70;;;16.20;;
23390;SDS011;11868;45.606;5.302;2024-03-08T07:59:45;18.30;;;13.30;;
23390;SDS011;11868;45.606;5.302;2024-03-08T08:02:10;20.52;;;12.50;;
23390;SDS011;11868;45.606;5.302;2024-03-08T08:04:36;19.75;;;12.45;;
23390;SDS011;11868;45.606;5.302;2024-03-08T08:07:01;15.85;;;11.68;;
23390;SDS011;11868;45.606;5.302;2024-03-08T08:09:26;20.73;;;12.48;;
23390;SDS011;11868;45.606;5.302;2024-03-08T08:11:59;17.67;;;11.40;;
23390;SDS011;11868;45.606;5.302;2024-03-08T08:14:26;17.80;;;11.75;;
23390;SDS011;11868;45.606;5.302;2024-03-08T08:16:52;15.57;;;11.30;;
23390;SDS011;11868;45.606;5.302;2024-03-08T08:19:18;17.52;;;11.85;;
23390;SDS011;11868;45.606;5.302;2024-03-08T08:21:44;16.38;;;12.05;;
23390;SDS011;11868;45.606;5.302;2024-03-08T08:24:09;17.35;;;11.18;;
23390;SDS011;11868;45.606;5.302;2024-03-08T08:26:35;16.52;;;10.25;;
23390;SDS011;11868;45.606;5.302;2024-03-08T08:29:01;13.38;;;9.48;;
23390;SDS011;11868;45.606;5.302;2024-03-08T08:31:26;13.60;;;9.02;;
23390;SDS011;11868;45.606;5.302;2024-03-08T08:33:52;13.02;;;8.75;;
23390;SDS011;11868;45.606;5.302;2024-03-08T08:36:23;13.90;;;9.70;;
23390;SDS011;11868;45.606;5.302;2024-03-08T08:38:51;14.27;;;9.40;;
23390;SDS011;11868;45.606;5.302;2024-03-08T08:41:19;14.13;;;9.30;;
23390;SDS011;11868;45.606;5.302;2024-03-08T08:43:46;11.73;;;8.57;;
23390;SDS011;11868;45.606;5.302;2024-03-08T08:46:12;14.43;;;9.68;;
23390;SDS011;11868;45.606;5.302;2024-03-08T08:48:38;13.98;;;8.98;;
23390;SDS011;11868;45.606;5.302;2024-03-08T08:51:06;14.07;;;9.30;;
23390;SDS011;11868;45.606;5.302;2024-03-08T08:53:31;12.77;;;9.23;;
23390;SDS011;11868;45.606;5.302;2024-03-08T08:55:56;15.18;;;9.63;;
23390;SDS011;11868;45.606;5.302;2024-03-08T08:58:22;13.95;;;8.50;;
23390;SDS011;11868;45.606;5.302;2024-03-08T09:00:47;13.27;;;9.10;;
23390;SDS011;11868;45.606;5.302;2024-03-08T09:03:12;13.00;;;9.27;;
23390;SDS011;11868;45.606;5.302;2024-03-08T09:05:38;13.40;;;8.68;;
23390;SDS011;11868;45.606;5.302;2024-03-08T09:08:03;12.95;;;8.60;;
23390;SDS011;11868;45.606;5.302;2024-03-08T09:10:29;13.50;;;8.65;;
23390;SDS011;11868;45.606;5.302;2024-03-08T09:12:54;10.63;;;8.10;;
23390;SDS011;11868;45.606;5.302;2024-03-08T09:15:19;11.07;;;7.97;;
23390;SDS011;11868;45.606;5.302;2024-03-08T09:17:45;13.45;;;8.25;;
23390;SDS011;11868;45.606;5.302;2024-03-08T09:20:12;10.75;;;7.80;;
23390;SDS011;11868;45.606;5.302;2024-03-08T09:22:43;15.60;;;9.10;;
23390;SDS011;11868;45.606;5.302;2024-03-08T09:25:09;10.95;;;7.75;;
23390;SDS011;11868;45.606;5.302;2024-03-08T09:27:35;10.27;;;7.75;;
23390;SDS011;11868;45.606;5.302;2024-03-08T09:30:00;12.25;;;7.68;;
23390;SDS011;11868;45.606;5.302;2024-03-08T09:32:26;10.25;;;7.20;;
23390;SDS011;11868;45.606;5.302;2024-03-08T09:34:51;13.55;;;8.30;;
23390;SDS011;11868;45.606;5.302;2024-03-08T09:37:16;10.73;;;7.72;;
23390;SDS011;11868;45.606;5.302;2024-03-08T09:39:42;9.60;;;7.28;;
23390;SDS011;11868;45.606;5.302;2024-03-08T09:42:07;11.23;;;7.32;;
23390;SDS011;11868;45.606;5.302;2024-03-08T09:44:33;10.13;;;7.65;;
23390;SDS011;11868;45.606;5.302;2024-03-08T09:47:00;12.68;;;8.00;;
23390;SDS011;11868;45.606;5.302;2024-03-08T09:49:27;11.20;;;7.57;;
23390;SDS011;11868;45.606;5.302;2024-03-08T09:51:53;10.55;;;7.05;;
23390;SDS011;11868;45.606;5.302;2024-03-08T09:54:20;10.10;;;7.57;;
23390;SDS011;11868;45.606;5.302;2024-03-08T09:56:47;14.98;;;7.60;;
23390;SDS011;11868;45.606;5.302;2024-03-08T09:59:14;13.15;;;7.35;;
23390;SDS011;11868;45.606;5.302;2024-03-08T10:01:58;12.45;;;7.30;;
23390;SDS011;11868;45.606;5.302;2024-03-08T10:04:24;13.00;;;8.57;;
23390;SDS011;11868;45.606;5.302;2024-03-08T10:06:51;11.18;;;7.78;;
23390;SDS011;11868;45.606;5.302;2024-03-08T10:09:17;12.25;;;8.32;;
23390;SDS011;11868;45.606;5.302;2024-03-08T10:11:42;10.98;;;7.97;;
23390;SDS011;11868;45.606;5.302;2024-03-08T10:14:11;11.48;;;7.72;;
23390;SDS011;11868;45.606;5.302;2024-03-08T10:16:38;10.40;;;7.57;;
23390;SDS011;11868;45.606;5.302;2024-03-08T10:19:04;9.23;;;6.40;;
23390;SDS011;11868;45.606;5.302;2024-03-08T10:21:30;11.30;;;7.10;;
23390;SDS011;11868;45.606;5.302;2024-03-08T10:23:57;9.23;;;6.47;;
23390;SDS011;11868;45.606;5.302;2024-03-08T10:26:24;8.57;;;6.00;;
23390;SDS011;11868;45.606;5.302;2024-03-08T10:28:50;8.30;;;5.63;;
23390;SDS011;11868;45.606;5.302;2024-03-08T10:31:17;13.50;;;5.78;;
23390;SDS011;11868;45.606;5.302;2024-03-08T10:33:43;11.15;;;6.78;;
23390;SDS011;11868;45.606;5.302;2024-03-08T10:36:09;9.48;;;6.70;;
23390;SDS011;11868;45.606;5.302;2024-03-08T10:38:39;8.33;;;5.87;;
23390;SDS011;11868;45.606;5.302;2024-03-08T10:41:06;10.80;;;6.05;;
23390;SDS011;11868;45.606;5.302;2024-03-08T10:43:32;8.15;;;6.05;;
23390;SDS011;11868;45.606;5.302;2024-03-08T10:49:25;10.02;;;5.95;;
23390;SDS011;11868;45.606;5.302;2024-03-08T10:51:51;9.02;;;5.80;;
23390;SDS011;11868;45.606;5.302;2024-03-08T10:54:17;8.85;;;6.40;;
23390;SDS011;11868;45.606;5.302;2024-03-08T10:56:44;10.75;;;6.32;;
23390;SDS011;11868;45.606;5.302;2024-03-08T10:59:10;9.00;;;6.07;;
23390;SDS011;11868;45.606;5.302;2024-03-08T11:01:37;9.43;;;6.68;;
23390;SDS011;11868;45.606;5.302;2024-03-08T11:04:06;9.63;;;6.80;;
23390;SDS011;11868;45.606;5.302;2024-03-08T11:09:03;9.88;;;6.63;;
23390;SDS011;11868;45.606;5.302;2024-03-08T11:11:29;9.73;;;7.25;;
23390;SDS011;11868;45.606;5.302;2024-03-08T11:13:59;10.77;;;7.88;;
23390;SDS011;11868;45.606;5.302;2024-03-08T11:18:58;10.93;;;7.97;;
23390;SDS011;11868;45.606;5.302;2024-03-08T11:21:30;9.52;;;7.25;;
23390;SDS011;11868;45.606;5.302;2024-03-08T11:24:07;11.63;;;8.23;;
23390;SDS011;11868;45.606;5.302;2024-03-08T11:26:42;19.83;;;12.30;;
23390;SDS011;11868;45.606;5.302;2024-03-08T11:32:09;14.40;;;7.93;;
23390;SDS011;11868;45.606;5.302;2024-03-08T11:34:36;12.05;;;7.40;;
23390;SDS011;11868;45.606;5.302;2024-03-08T11:37:07;11.45;;;8.02;;
23390;SDS011;11868;45.606;5.302;2024-03-08T11:39:38;11.40;;;7.75;;
23390;SDS011;11868;45.606;5.302;2024-03-08T11:42:05;11.75;;;7.57;;
23390;SDS011;11868;45.606;5.302;2024-03-08T11:44:30;11.65;;;7.32;;
23390;SDS011;11868;45.606;5.302;2024-03-08T11:46:56;11.52;;;7.90;;
23390;SDS011;11868;45.606;5.302;2024-03-08T11:49:22;10.02;;;7.90;;
23390;SDS011;11868;45.606;5.302;2024-03-08T11:51:50;11.32;;;7.57;;
23390;SDS011;11868;45.606;5.302;2024-03-08T11:54:17;13.80;;;8.88;;
23390;SDS011;11868;45.606;5.302;2024-03-08T11:56:42;15.88;;;9.30;;
23390;SDS011;11868;45.606;5.302;2024-03-08T11:59:11;12.52;;;8.60;;
23390;SDS011;11868;45.606;5.302;2024-03-08T12:01:37;15.95;;;7.82;;
23390;SDS011;11868;45.606;5.302;2024-03-08T12:04:06;10.73;;;7.63;;
23390;SDS011;11868;45.606;5.302;2024-03-08T12:06:37;11.60;;;7.70;;
23390;SDS011;11868;45.606;5.302;2024-03-08T12:09:04;11.55;;;7.45;;
23390;SDS011;11868;45.606;5.302;2024-03-08T12:11:34;12.90;;;7.22;;
23390;SDS011;11868;45.606;5.302;2024-03-08T12:14:01;13.00;;;7.60;;
23390;SDS011;11868;45.606;5.302;2024-03-08T12:16:26;13.60;;;7.22;;
23390;SDS011;11868;45.606;5.302;2024-03-08T12:18:52;11.88;;;7.88;;
23390;SDS011;11868;45.606;5.302;2024-03-08T12:21:18;15.85;;;9.82;;
23390;SDS011;11868;45.606;5.302;2024-03-08T12:23:47;13.13;;;8.80;;
23390;SDS011;11868;45.606;5.302;2024-03-08T12:26:25;12.32;;;8.43;;
23390;SDS011;11868;45.606;5.302;2024-03-08T12:28:51;12.18;;;7.97;;
23390;SDS011;11868;45.606;5.302;2024-03-08T12:31:17;10.13;;;7.15;;
23390;SDS011;11868;45.606;5.302;2024-03-08T12:33:49;11.27;;;7.20;;
23390;SDS011;11868;45.606;5.302;2024-03-08T12:36:15;13.38;;;7.68;;
23390;SDS011;11868;45.606;5.302;2024-03-08T12:38:44;12.68;;;7.72;;
23390;SDS011;11868;45.606;5.302;2024-03-08T12:41:16;11.90;;;7.25;;
23390;SDS011;11868;45.606;5.302;2024-03-08T12:43:43;11.50;;;7.40;;
23390;SDS011;11868;45.606;5.302;2024-03-08T12:46:14;11.10;;;7.47;;
23390;SDS011;11868;45.606;5.302;2024-03-08T12:48:39;13.73;;;8.75;;
23390;SDS011;11868;45.606;5.302;2024-03-08T12:51:08;10.27;;;7.30;;
23390;SDS011;11868;45.606;5.302;2024-03-08T12:53:34;10.05;;;7.20;;
23390;SDS011;11868;45.606;5.302;2024-03-08T12:55:59;9.48;;;6.53;;
23390;SDS011;11868;45.606;5.302;2024-03-08T12:58:25;11.15;;;7.20;;
23390;SDS011;11868;45.606;5.302;2024-03-08T13:00:53;9.77;;;6.85;;
23390;SDS011;11868;45.606;5.302;2024-03-08T13:03:18;10.07;;;7.20;;
23390;SDS011;11868;45.606;5.302;2024-03-08T13:05:44;8.52;;;6.68;;
23390;SDS011;11868;45.606;5.302;2024-03-08T13:08:09;10.60;;;7.63;;
23390;SDS011;11868;45.606;5.302;2024-03-08T13:10:38;9.63;;;6.78;;
23390;SDS011;11868;45.606;5.302;2024-03-08T13:13:08;11.82;;;6.72;;
23390;SDS011;11868;45.606;5.302;2024-03-08T13:15:35;9.50;;;6.93;;
23390;SDS011;11868;45.606;5.302;2024-03-08T13:18:00;13.98;;;7.18;;
23390;SDS011;11868;45.606;5.302;2024-03-08T13:20:26;12.05;;;6.50;;
23390;SDS011;11868;45.606;5.302;2024-03-08T13:22:53;12.10;;;7.70;;
23390;SDS011;11868;45.606;5.302;2024-03-08T13:25:18;13.35;;;7.07;;
23390;SDS011;11868;45.606;5.302;2024-03-08T13:27:45;13.43;;;7.78;;
23390;SDS011;11868;45.606;5.302;2024-03-08T13:30:11;15.98;;;8.07;;
23390;SDS011;11868;45.606;5.302;2024-03-08T13:32:43;9.15;;;6.25;;
23390;SDS011;11868;45.606;5.302;2024-03-08T13:35:09;10.00;;;7.30;;
23390;SDS011;11868;45.606;5.302;2024-03-08T13:37:41;11.32;;;7.00;;
23390;SDS011;11868;45.606;5.302;2024-03-08T13:40:07;12.10;;;6.75;;
23390;SDS011;11868;45.606;5.302;2024-03-08T13:42:38;12.75;;;7.53;;
23390;SDS011;11868;45.606;5.302;2024-03-08T13:45:05;12.00;;;7.30;;
23390;SDS011;11868;45.606;5.302;2024-03-08T13:47:32;11.23;;;6.57;;
23390;SDS011;11868;45.606;5.302;2024-03-08T13:49:59;14.00;;;7.25;;
23390;SDS011;11868;45.606;5.302;2024-03-08T13:52:25;9.70;;;6.85;;
23390;SDS011;11868;45.606;5.302;2024-03-08T13:54:54;13.27;;;7.63;;
23390;SDS011;11868;45.606;5.302;2024-03-08T13:57:19;14.75;;;10.10;;
23390;SDS011;11868;45.606;5.302;2024-03-08T13:59:44;12.88;;;8.27;;
23390;SDS011;11868;45.606;5.302;2024-03-08T14:02:10;14.88;;;8.43;;
23390;SDS011;11868;45.606;5.302;2024-03-08T14:04:38;13.70;;;7.28;;
23390;SDS011;11868;45.606;5.302;2024-03-08T14:07:04;13.98;;;7.13;;
23390;SDS011;11868;45.606;5.302;2024-03-08T14:09:33;11.27;;;6.72;;
23390;SDS011;11868;45.606;5.302;2024-03-08T14:12:02;7.03;;;3.50;;
23390;SDS011;11868;45.606;5.302;2024-03-08T14:14:33;11.70;;;5.18;;
23390;SDS011;11868;45.606;5.302;2024-03-08T14:17:00;6.43;;;4.47;;
23390;SDS011;11868;45.606;5.302;2024-03-08T14:19:27;6.65;;;3.45;;
23390;SDS011;11868;45.606;5.302;2024-03-08T14:21:52;10.00;;;3.92;;
23390;SDS011;11868;45.606;5.302;2024-03-08T14:24:18;7.72;;;4.38;;
23390;SDS011;11868;45.606;5.302;2024-03-08T14:26:44;10.20;;;5.50;;
23390;SDS011;11868;45.606;5.302;2024-03-08T14:29:09;12.60;;;4.60;;
23390;SDS011;11868;45.606;5.302;2024-03-08T14:31:35;7.20;;;4.47;;
23390;SDS011;11868;45.606;5.302;2024-03-08T14:34:03;8.93;;;3.60;;
23390;SDS011;11868;45.606;5.302;2024-03-08T14:36:31;8.73;;;3.92;;
23390;SDS011;11868;45.606;5.302;2024-03-08T14:38:57;7.97;;;3.75;;
23390;SDS011;11868;45.606;5.302;2024-03-08T14:41:22;25.35;;;11.45;;